Карточка аэропорта USRR

Внимание!
Информация на этой странице в стадии наполнения.
Если вы не увидели какой-то информации, или заметили неточность - пожалуйста сообщите нам!
Спасибо!
Команда RU-STAFF
Название аэропортаСургут
Название аэропорта (англ.)Surgut
Превышение196 ft. (59.7 m.)
Координаты61°20.502', 73°24.168'
Высота перехода700m
Эшелон переходаQFE>=742mm:FL040; QFE<=742mm:FL050
Коды ответчика5570-5577
Зона ОрВДТюмень РПИ (USTV)
Данные METARUSRR 250900Z 01005MPS 340V060 9999 SCT012 BKN022CB 14/13 Q1003 R07/CLRD60 NOSIG RMK QFE747
Проноз погоды (TAF)USRR 250732Z 2509/2609 03006G13MPS 6000 BKN007 OVC016CB TEMPO 2509/2514 36008G18MPS 1500 TSRA BKN004 OVC011CB BECMG 2514/2516 35003G12MPS BKN016CB TEMPO 2516/2601 0400 FG BKN003 OVC016CB
NOTAMshow/hide NOTAM
AWOS   TABLE

Информация о ВПП

ВПП Длина ВПП (м.) Покрытие Курс ВПП Частота ILS
072780Асфальтобетон73110.5
252780Асфальтобетон253109.1

Диспетчерские позиции

Позывной Наименование органа УВД Частота
USRR_R_APPСургут - Круг120.300
USRR_TWRСургут-Вышка120.800
USRR_APPСургут-Подход129.300



Спутниковое изображение